WetterOnline ( http://www.wetteronline.de )

Wetter aktuell Schmölln

Aktuelles Wetter: Gera/Leumnitz (311m)

6-stündlich | Neueste Meldungen
Ortszeit Temperatur Wetter
So, 24.02. 1:00 -0.8° C leicht bewölkt
Sa, 23.02. 19:00 0.1° C leicht bewölkt
Sa, 23.02. 13:00 3.2° C leicht bewölkt
Sa, 23.02. 7:00 -3.5° C leicht bewölkt
Sa, 23.02. 1:00 -2.3° C wolkig
Fr, 22.02. 19:00 0.5° C bedeckt
Fr, 22.02. 13:00 5.0° C bedeckt
Fr, 22.02. 7:00 7.2° C Sprühregen
Ortszeit Temperatur Wetter
So, 24.02. 4:00 -1.2° C fast wolkenlos
So, 24.02. 3:50 -1.2° C fast wolkenlos
So, 24.02. 3:40 -1.0° C leicht bewölkt
So, 24.02. 3:30 -0.9° C leicht bewölkt
So, 24.02. 3:20 -0.9° C leicht bewölkt
So, 24.02. 3:10 -0.8° C fast wolkenlos
So, 24.02. 3:00 -0.7° C wolkenlos
So, 24.02. 2:30 -1.5° C fast wolkenlos
So, 24.02. 2:00 -0.8° C fast wolkenlos
So, 24.02. 1:30 -0.6° C wolkig
So, 24.02. 1:00 -0.8° C leicht bewölkt
Ortszeit Relative Feuchte Sichtweite
So, 24.02. 1:00 58% 45 km
Sa, 23.02. 19:00 74% 35 km
Sa, 23.02. 13:00 53% 55 km
Sa, 23.02. 7:00 87% 10 km
Sa, 23.02. 1:00 85% 13 km
Fr, 22.02. 19:00 86% 14 km
Fr, 22.02. 13:00 89% 22 km
Fr, 22.02. 7:00 94% 3.9 km
Ortszeit Relative Feuchte Sichtweite
So, 24.02. 4:00 58% 45 km
So, 24.02. 3:50 58% -
So, 24.02. 3:40 55% -
So, 24.02. 3:30 56% 50 km
So, 24.02. 3:20 56% -
So, 24.02. 3:10 56% -
So, 24.02. 3:00 55% 45 km
So, 24.02. 2:30 65% 45 km
So, 24.02. 2:00 57% 50 km
So, 24.02. 1:30 57% 50 km
So, 24.02. 1:00 58% 45 km
Ortszeit Niederschlagsmenge Niederschlagsart
So, 24.02. 1:00 0.0 l/m2 in 6 Std. -
Sa, 23.02. 19:00 0.0 l/m2 in 12 Std. -
Sa, 23.02. 13:00 0.0 l/m2 in 6 Std. -
Sa, 23.02. 7:00 0.0 l/m2 in 12 Std. -
Sa, 23.02. 1:00 0.0 l/m2 in 6 Std. -
Fr, 22.02. 19:00 0.4 l/m2 in 12 Std. Sprühregen
Fr, 22.02. 13:00 0.4 l/m2 in 6 Std. Regen
Fr, 22.02. 7:00 0.6 l/m2 in 12 Std. Regen
Ortszeit Niederschlagsmenge Niederschlagsart
So, 24.02. 4:00 0.0 l/m2 in 1 Std. -
So, 24.02. 3:50 keine Meldung -
So, 24.02. 3:40 keine Meldung -
So, 24.02. 3:30 0.0 l/m2 in 1 Std. -
So, 24.02. 3:20 keine Meldung -
So, 24.02. 3:10 keine Meldung -
So, 24.02. 3:00 0.0 l/m2 in 1 Std. -
So, 24.02. 2:30 0.0 l/m2 in 1 Std. -
So, 24.02. 2:00 0.0 l/m2 in 1 Std. -
So, 24.02. 1:30 0.0 l/m2 in 1 Std. -
So, 24.02. 1:00 0.0 l/m2 in 1 Std. -
Ortszeit Stärke Spitze Richtung
km/h Bft. km/h Grad Sektor
So, 24.02. 1:00 13 3 19 190° S
Sa, 23.02. 19:00 11 2 22 100° O
Sa, 23.02. 13:00 13 3 22 160° S
Sa, 23.02. 7:00 11 2 18 200° S
Sa, 23.02. 1:00 11 2 25 70° O
Fr, 22.02. 19:00 17 3 31 80° O
Fr, 22.02. 13:00 14 3 36 40° NO
Fr, 22.02. 7:00 18 3 36 330° NW
Ortszeit Stärke Spitze Richtung
km/h Bft. km/h Grad Sektor
So, 24.02. 4:00 13 3 22 190° S
So, 24.02. 3:50 13 3 - 190° S
So, 24.02. 3:40 13 3 - 190° S
So, 24.02. 3:30 11 2 22 200° S
So, 24.02. 3:20 11 2 - 200° S
So, 24.02. 3:10 14 3 - 190° S
So, 24.02. 3:00 18 3 22 190° S
So, 24.02. 2:30 11 2 14 190° S
So, 24.02. 2:00 11 2 18 200° S
So, 24.02. 1:30 13 3 17 200° S
So, 24.02. 1:00 13 3 17 190° S
Ortszeit Untergrenze Bedeckung Gattung
total tief tief mittel hoch
So, 24.02. 1:00 10500 m 3/8 0/8 - - -
Sa, 23.02. 19:00 10500 m 6/8 0/8 - - -
Sa, 23.02. 13:00 10500 m 8/8 0/8 - - -
Sa, 23.02. 7:00 9000 m 6/8 0/8 - - -
Sa, 23.02. 1:00 9000 m 7/8 0/8 - - -
Fr, 22.02. 19:00 240 m 8/8 8/8 - - -
Fr, 22.02. 13:00 240 m 8/8 8/8 - - -
Fr, 22.02. 7:00 150 m 8/8 8/8 - - -
Ortszeit Bedeckungsgrad in Achtel und Wolkenuntergrenze
So, 24.02. 4:00 1(10500m)
So, 24.02. 3:50 1(10500m)
So, 24.02. 3:40 3(10500m)
So, 24.02. 3:30 5(10500m)
So, 24.02. 3:20 5(10500m)
So, 24.02. 3:10 1(10500m)
So, 24.02. 3:00 keine Wolken
So, 24.02. 2:30 2(12000m)
So, 24.02. 2:00 2(12000m)
So, 24.02. 1:30 1(10500m) 7(10500m)
So, 24.02. 1:00 3(10500m)
Ortszeit Luftdruck NN (hPa) Tendenz (hPa in 3 Std.)
So, 24.02. 1:00 1041 - 0,6
Sa, 23.02. 19:00 1042 - 0,6
Sa, 23.02. 13:00 1043 - 2,1
Sa, 23.02. 7:00 1043 - 0,4
Sa, 23.02. 1:00 1044 + 0,9
Fr, 22.02. 19:00 1042 + 1,9
Fr, 22.02. 13:00 1036 + 2,7
Fr, 22.02. 7:00 1030 + 1,7
Ortszeit Luftdruck NN (hPa) Tendenz (hPa in 3 Std.)
So, 24.02. 4:00 1041 - 0,4
So, 24.02. 3:50 1041 keine Meldung
So, 24.02. 3:40 1041 keine Meldung
So, 24.02. 3:30 1041 - 0,6
So, 24.02. 3:20 1041 keine Meldung
So, 24.02. 3:10 1041 keine Meldung
So, 24.02. 3:00 1041 - 0,7
So, 24.02. 2:30 1041 - 0,3
So, 24.02. 2:00 1041 - 0,7
So, 24.02. 1:30 1041 - 0,7
So, 24.02. 1:00 1041 - 0,6
Ortszeit Schneehöhe (cm)
So, 24.02. 1:00 0
Sa, 23.02. 19:00 0
Sa, 23.02. 13:00 0
Sa, 23.02. 7:00 0
Sa, 23.02. 1:00 0
Fr, 22.02. 19:00 0
Fr, 22.02. 13:00 0
Fr, 22.02. 7:00 0
Ortszeit Schneehöhe (cm)
So, 24.02. 4:00 0
So, 24.02. 3:50 0
So, 24.02. 3:40 0
So, 24.02. 3:30 0
So, 24.02. 3:20 0
So, 24.02. 3:10 0
So, 24.02. 3:00 0
So, 24.02. 2:30 0
So, 24.02. 2:00 0
So, 24.02. 1:30 0
So, 24.02. 1:00 0
Link zu dieser Seite / Seite empfehlen

Das Wetter in ...